Townsville Airport
YBTL : now visible

Airfield :











YOU CAN JOIN US ON...

 
LOGIN :

Register | Disclaimer

   EN    FR    IT 

 









Legend :    VFR   Marginal VFR   IFR   Intensive IFR   Very Intensive IFR
Visi :
Ceiling :
>= 8 km
>= 3000ft
5 to 8 km
1000 to 3000 ft
1500m to 5 km
500 to 1000 ft
800 to 1500m
200 to 500 ft
< 800m
< 200 ft
Symbols :   Thunderstorms  Fog  Heavy snow  Heavy precipitations  Wind > 20 kt






- Airport Elevation : 18 ft
- IATA code : TSV


YBTL - Townsville

CURRENT METAR :
  • 171530Z AUTO 25005KT 9999 // SCT045 SCT100 25/23 Q1002

EXPIRED METARs :
  • 171500Z AUTO 20010KT 9999 SHRA BKN024 BKN094 25/24 Q1003
  • 171430Z AUTO 16014KT 9999 -SHRA BKN019 OVC024 27/23 Q1004
  • 171428Z AUTO 16015KT 9999 -RA BKN019 OVC024 27/23 Q1004
  • 171409Z AUTO 14012KT 9999 // BKN017 BKN021 27/24 Q1004
  • 171400Z AUTO 13012KT 9999 // SCT015 BKN021 BKN025 27/24 Q1003
  • 171330Z AUTO 13010KT 9999 // SCT019 26/24 Q1003
  • 171300Z AUTO 13012KT 9999 // NCD 26/24 Q1003
  • 171230Z AUTO 13012KT 9999 // SCT019 26/23 Q1003

TAF AMD TAF YBTL
Valid from the 17 at 12:00 until the 18 at 12:00 UTC


171212Z 1712/1812 15008KT 9999 SCT018 BKN025
FM172300 18007KT 9999 SCT030
FM180200 06014KT 9999 FEW040
FM181000 35007KT 9999 SCT020
TEMPO 1712/1721 9999 BKN015
PROB30
TEMPO 1713/1716 VRB20G35KT 1000 TSRA BKN010 SCT025CB
PROB30
TEMPO 1806/1810 VRB20G35KT 1000 TSRA BKN015 SCT030CB



MET'MAP, your aeronautical weather chart ! - Copyright ORBIFLY December 2007 - Disclaimer

ORBIFLY MET'MAP TEAM :

Programming & Development : Alexandra Zaïnal
Concept & original design : Baudouin d'Aumeries
Assistance for programming : Marc-Olivier Méhu
Technical & hardware support : Manuel Goepfert

Contact : metmap@orbifly.com




SOURCES & CREDITS :

   NOAA       Earth
Advisory